createdAt,value
2022-09-14T00:01:23.696Z,92.63
2022-09-14T00:03:47.936Z,92.83
2022-09-14T00:06:16.351Z,92.82
2022-09-14T00:08:44.112Z,92.91
2022-09-14T00:11:13.548Z,92.09
2022-09-14T00:13:43.476Z,91.39
2022-09-14T00:16:22.667Z,91.71
2022-09-14T00:18:54.549Z,92.12
2022-09-14T00:21:22.299Z,92.12
2022-09-14T00:23:49.043Z,92.26
2022-09-14T00:26:18.810Z,92.70
2022-09-14T00:28:50.741Z,91.96
2022-09-14T00:31:18.862Z,92.17
2022-09-14T00:33:48.055Z,91.90
2022-09-14T00:36:16.825Z,92.79
2022-09-14T00:38:43.571Z,93.06
2022-09-14T00:41:16.319Z,92.53
2022-09-14T00:43:58.192Z,92.37
2022-09-14T00:46:27.700Z,93.02
2022-09-14T00:48:56.040Z,92.91
2022-09-14T00:51:23.419Z,91.58
2022-09-14T00:53:50.211Z,91.61
2022-09-14T00:56:17.081Z,92.39
2022-09-14T00:58:46.693Z,92.64
2022-09-14T01:01:14.065Z,92.59
2022-09-14T01:03:41.052Z,93.28
2022-09-14T01:06:27.173Z,93.53
2022-09-14T01:09:09.444Z,94.22
2022-09-14T01:12:06.172Z,94.70
2022-09-14T01:14:47.653Z,94.07
2022-09-14T01:17:44.724Z,94.72
2022-09-14T01:20:25.971Z,94.29
2022-09-14T01:23:08.346Z,94.42
2022-09-14T01:25:59.754Z,94.37
2022-09-14T01:28:52.471Z,93.67
2022-09-14T01:31:48.273Z,93.59
2022-09-14T01:34:28.851Z,93.37
2022-09-14T01:37:03.557Z,92.93
2022-09-14T01:39:35.242Z,93.25
2022-09-14T01:42:02.532Z,92.85
2022-09-14T01:44:35.951Z,92.71
2022-09-14T01:47:15.274Z,93.72
2022-09-14T01:49:52.436Z,93.07
2022-09-14T01:52:25.902Z,92.42
2022-09-14T01:55:07.612Z,92.52
2022-09-14T01:57:40.921Z,93.08
2022-09-14T02:00:18.822Z,93.55
2022-09-14T02:03:00.342Z,93.55
2022-09-14T02:05:50.779Z,93.50
2022-09-14T02:08:17.896Z,93.78
2022-09-14T02:10:44.525Z,94.03
2022-09-14T02:13:11.114Z,93.80
2022-09-14T02:15:38.942Z,93.90
2022-09-14T02:18:05.862Z,93.68
2022-09-14T02:20:42.922Z,93.11
2022-09-14T02:23:09.701Z,92.88
2022-09-14T02:25:36.889Z,92.92
2022-09-14T02:28:04.511Z,94.05
2022-09-14T02:30:37.218Z,93.50
2022-09-14T02:33:19.476Z,93.12
2022-09-14T02:35:54.162Z,94.44
2022-09-14T02:38:40.620Z,94.22
2022-09-14T02:41:49.017Z,94.34
2022-09-14T02:44:35.332Z,93.70
2022-09-14T02:47:10.209Z,93.92
2022-09-14T02:49:40.199Z,94.48
2022-09-14T02:52:16.037Z,94.43
2022-09-14T02:54:52.142Z,94.91
2022-09-14T02:57:18.820Z,94.87
2022-09-14T02:59:45.512Z,95.04
2022-09-14T03:02:15.520Z,97.00
2022-09-14T03:04:42.320Z,97.05
2022-09-14T03:07:09.243Z,96.66
2022-09-14T03:09:35.859Z,97.26
2022-09-14T03:12:02.795Z,97.74
2022-09-14T03:14:29.504Z,97.53
2022-09-14T03:16:56.352Z,97.33
2022-09-14T03:19:23.190Z,98.04
2022-09-14T03:21:49.785Z,97.62
2022-09-14T03:24:16.387Z,96.87
2022-09-14T03:26:43.106Z,97.36
2022-09-14T03:29:09.698Z,97.95
2022-09-14T03:31:36.774Z,97.96
2022-09-14T03:34:03.650Z,97.33
2022-09-14T03:36:31.590Z,96.97
2022-09-14T03:39:00.156Z,97.01
2022-09-14T03:41:28.191Z,98.24
2022-09-14T03:43:54.903Z,98.24
2022-09-14T03:46:23.736Z,96.87
2022-09-14T03:48:52.062Z,97.45
2022-09-14T03:51:18.756Z,97.01
2022-09-14T03:53:45.826Z,97.12
2022-09-14T03:56:16.473Z,97.28
2022-09-14T03:58:44.235Z,96.40
2022-09-14T04:01:14.572Z,97.18
2022-09-14T04:03:41.843Z,95.57
2022-09-14T04:06:09.238Z,95.74
2022-09-14T04:08:38.570Z,95.64
2022-09-14T04:11:10.843Z,95.95
2022-09-14T04:13:38.503Z,96.22
2022-09-14T04:16:05.566Z,96.21
2022-09-14T04:18:32.807Z,95.98
2022-09-14T04:21:07.243Z,95.54
2022-09-14T04:23:46.222Z,96.04
2022-09-14T04:26:20.307Z,95.90
2022-09-14T04:28:46.946Z,96.91
2022-09-14T04:31:14.272Z,96.63
2022-09-14T04:33:43.236Z,95.49
2022-09-14T04:36:14.986Z,96.28
2022-09-14T04:38:42.530Z,95.23
2022-09-14T04:41:12.276Z,95.44
2022-09-14T04:43:39.637Z,95.17
2022-09-14T04:46:09.959Z,94.85
2022-09-14T04:48:36.879Z,94.44
2022-09-14T04:51:18.178Z,94.78
2022-09-14T04:53:52.466Z,95.61
2022-09-14T04:56:24.295Z,95.63
2022-09-14T04:58:54.239Z,95.74
2022-09-14T05:01:23.685Z,96.72
2022-09-14T05:03:51.141Z,96.44
2022-09-14T05:06:28.849Z,96.30
2022-09-14T05:08:56.842Z,95.81
2022-09-14T05:11:25.951Z,95.61
2022-09-14T05:13:52.646Z,95.55
2022-09-14T05:16:29.683Z,95.15
2022-09-14T05:19:01.995Z,94.92
2022-09-14T05:21:30.545Z,95.11
2022-09-14T05:24:00.048Z,94.82
2022-09-14T05:26:28.720Z,95.12
2022-09-14T05:28:57.823Z,95.24
2022-09-14T05:31:26.674Z,95.22
2022-09-14T05:33:54.027Z,95.35
2022-09-14T05:36:21.349Z,95.25
2022-09-14T05:38:48.136Z,95.39
2022-09-14T05:41:17.282Z,95.28
2022-09-14T05:43:44.363Z,94.64
2022-09-14T05:46:17.305Z,94.75
2022-09-14T05:48:44.130Z,94.48
2022-09-14T05:51:19.111Z,94.17
2022-09-14T05:53:50.902Z,93.69
2022-09-14T05:56:26.113Z,94.19
2022-09-14T05:58:53.482Z,94.70
2022-09-14T06:01:29.444Z,94.58
2022-09-14T06:04:00.246Z,95.37
2022-09-14T06:06:30.046Z,94.68
2022-09-14T06:08:57.211Z,94.02
2022-09-14T06:11:27.042Z,94.40
2022-09-14T06:13:54.503Z,94.19
2022-09-14T06:16:26.425Z,94.64
2022-09-14T06:18:55.330Z,95.04
2022-09-14T06:21:23.498Z,95.13
2022-09-14T06:23:51.934Z,95.03
2022-09-14T06:26:18.584Z,95.10
2022-09-14T06:28:45.291Z,95.21
2022-09-14T06:31:14.053Z,95.16
2022-09-14T06:33:45.813Z,94.80
2022-09-14T06:36:15.976Z,94.44
2022-09-14T06:38:42.812Z,95.12
2022-09-14T06:41:12.319Z,96.06
2022-09-14T06:43:40.745Z,96.45
2022-09-14T06:46:07.605Z,96.77
2022-09-14T06:48:38.929Z,96.92
2022-09-14T06:51:14.861Z,96.73
2022-09-14T06:53:42.088Z,96.96
2022-09-14T06:56:08.823Z,97.10
2022-09-14T06:58:36.508Z,97.23
2022-09-14T07:01:05.622Z,97.78
2022-09-14T07:03:40.203Z,98.00
2022-09-14T07:06:16.100Z,97.99
2022-09-14T07:08:58.093Z,98.55
2022-09-14T07:11:29.525Z,98.58
2022-09-14T07:14:00.042Z,98.96
2022-09-14T07:16:28.322Z,99.17
2022-09-14T07:19:00.289Z,99.08
2022-09-14T07:21:26.937Z,98.39
2022-09-14T07:23:55.637Z,98.39
2022-09-14T07:26:24.319Z,98.24
2022-09-14T07:28:57.867Z,98.32
2022-09-14T07:31:33.140Z,98.48
2022-09-14T07:34:02.704Z,97.98
2022-09-14T07:36:34.595Z,98.32
2022-09-14T07:39:04.169Z,98.49
2022-09-14T07:41:32.964Z,98.39
2022-09-14T07:44:01.188Z,97.87
2022-09-14T07:46:29.395Z,96.95
2022-09-14T07:48:58.182Z,97.32
2022-09-14T07:51:26.064Z,97.43
2022-09-14T07:53:53.071Z,97.51
2022-09-14T07:56:21.704Z,97.25
2022-09-14T07:58:54.796Z,97.43
2022-09-14T08:01:23.735Z,96.97
2022-09-14T08:03:50.911Z,97.87
2022-09-14T08:06:26.270Z,97.30
2022-09-14T08:08:54.827Z,97.21
2022-09-14T08:11:27.073Z,96.77
2022-09-14T08:14:14.065Z,97.09
2022-09-14T08:16:41.357Z,97.17
2022-09-14T08:19:17.231Z,97.23
2022-09-14T08:21:47.330Z,96.31
2022-09-14T08:24:17.243Z,96.75
2022-09-14T08:26:44.127Z,96.82
2022-09-14T08:29:16.937Z,96.60
2022-09-14T08:31:46.087Z,96.72
2022-09-14T08:34:13.542Z,96.33
2022-09-14T08:36:41.602Z,95.77
2022-09-14T08:39:10.601Z,96.88
2022-09-14T08:41:47.410Z,97.63
2022-09-14T08:44:20.126Z,97.02
2022-09-14T08:47:01.781Z,97.25
2022-09-14T08:49:48.529Z,97.17
2022-09-14T08:52:30.982Z,97.35
2022-09-14T08:55:01.037Z,96.55
2022-09-14T08:57:37.961Z,96.09
2022-09-14T09:00:14.808Z,96.66
2022-09-14T09:03:16.991Z,96.26
2022-09-14T09:06:10.928Z,96.21
2022-09-14T09:08:55.455Z,96.74
2022-09-14T09:11:28.815Z,97.05
2022-09-14T09:13:56.554Z,96.09
2022-09-14T09:16:24.892Z,96.23
2022-09-14T09:18:58.667Z,96.17
2022-09-14T09:21:38.398Z,96.59
2022-09-14T09:24:40.676Z,95.93
2022-09-14T09:27:15.005Z,94.40
2022-09-14T09:29:42.561Z,95.47
2022-09-14T09:32:25.154Z,95.15
2022-09-14T09:35:32.718Z,95.12
2022-09-14T09:38:16.014Z,94.95
2022-09-14T09:40:50.661Z,94.10
2022-09-14T09:43:38.528Z,93.15
2022-09-14T09:46:08.114Z,94.16
2022-09-14T09:48:37.884Z,94.21
2022-09-14T09:51:25.477Z,94.30
2022-09-14T09:53:55.686Z,94.25
2022-09-14T09:56:32.568Z,94.02
2022-09-14T09:59:00.418Z,93.51
2022-09-14T10:01:30.767Z,93.61
2022-09-14T10:04:06.025Z,93.92
2022-09-14T10:06:42.292Z,94.63
2022-09-14T10:09:14.651Z,94.53
2022-09-14T10:11:41.720Z,94.83
2022-09-14T10:14:31.396Z,94.46
2022-09-14T10:17:17.101Z,94.66
2022-09-14T10:19:52.363Z,94.89
2022-09-14T10:22:28.303Z,94.95
2022-09-14T10:25:15.268Z,95.20
2022-09-14T10:27:50.510Z,94.18
2022-09-14T10:30:20.152Z,94.64
2022-09-14T10:33:02.197Z,93.46
2022-09-14T10:35:41.758Z,93.53
2022-09-14T10:38:41.965Z,93.49
2022-09-14T10:41:11.553Z,92.64
2022-09-14T10:43:56.506Z,92.74
2022-09-14T10:46:34.593Z,92.94
2022-09-14T10:49:33.592Z,93.22
2022-09-14T10:52:46.273Z,92.87
2022-09-14T10:56:02.096Z,92.60
2022-09-14T10:58:42.506Z,93.07
2022-09-14T11:01:39.242Z,92.81
2022-09-14T11:04:08.972Z,92.82
2022-09-14T11:07:04.584Z,92.58
2022-09-14T11:09:46.547Z,92.86
2022-09-14T11:12:38.411Z,92.09
2022-09-14T11:15:48.683Z,92.63
2022-09-14T11:18:52.772Z,93.30
2022-09-14T11:21:32.839Z,93.47
2022-09-14T11:24:33.446Z,94.22
2022-09-14T11:27:10.972Z,94.68
2022-09-14T11:29:48.606Z,94.68
2022-09-14T11:32:39.468Z,94.02
2022-09-14T11:35:19.044Z,93.50
2022-09-14T11:38:00.864Z,93.77
2022-09-14T11:40:33.046Z,93.37
2022-09-14T11:43:06.061Z,93.27
2022-09-14T11:45:42.310Z,93.02
2022-09-14T11:48:46.171Z,93.70
2022-09-14T11:51:21.972Z,92.97
2022-09-14T11:53:50.985Z,92.31
2022-09-14T11:56:31.483Z,90.57
2022-09-14T11:59:07.913Z,91.01
2022-09-14T12:01:36.549Z,91.32
2022-09-14T12:04:09.626Z,90.58
2022-09-14T12:06:36.973Z,90.47
2022-09-14T12:09:24.107Z,89.04
2022-09-14T12:11:53.549Z,89.28
2022-09-14T12:14:30.527Z,88.67
2022-09-14T12:20:30.041Z,90.07
2022-09-14T12:23:05.023Z,89.53
2022-09-14T12:25:34.078Z,89.49
2022-09-14T12:28:00.892Z,88.76
2022-09-14T12:30:40.559Z,87.98
2022-09-14T12:33:37.080Z,87.40
2022-09-14T12:36:12.069Z,87.86
2022-09-14T12:38:41.571Z,87.24
2022-09-14T12:41:08.365Z,88.04
2022-09-14T12:43:35.273Z,86.99
2022-09-14T12:46:08.747Z,86.33
2022-09-14T12:49:02.724Z,85.62
2022-09-14T12:51:32.799Z,85.46
2022-09-14T12:54:09.050Z,86.50
2022-09-14T12:56:58.677Z,86.42
2022-09-14T12:59:31.627Z,86.56
2022-09-14T13:02:16.951Z,87.42
2022-09-14T13:04:45.762Z,86.52
2022-09-14T13:07:19.203Z,86.86
2022-09-14T13:09:52.802Z,86.27
2022-09-14T13:12:37.102Z,86.66
2022-09-14T13:15:08.300Z,86.13
2022-09-14T13:17:34.991Z,85.99
2022-09-14T13:20:06.150Z,86.14
2022-09-14T13:22:33.435Z,87.55
2022-09-14T13:25:03.758Z,87.94
2022-09-14T13:27:34.142Z,88.47
2022-09-14T13:30:04.829Z,87.73
2022-09-14T13:32:35.767Z,87.25
2022-09-14T13:35:05.274Z,87.02
2022-09-14T13:37:32.418Z,87.15
2022-09-14T13:39:59.813Z,86.82
2022-09-14T13:42:27.865Z,87.43
2022-09-14T13:44:55.020Z,86.93
2022-09-14T13:47:23.990Z,87.11
2022-09-14T13:49:53.172Z,87.71
2022-09-14T13:52:25.897Z,87.20
2022-09-14T13:55:25.144Z,87.25
2022-09-14T13:58:13.180Z,88.10
2022-09-14T14:01:02.802Z,87.44
2022-09-14T14:03:33.300Z,87.98
2022-09-14T14:06:23.744Z,87.62
2022-09-14T14:09:01.183Z,88.11
2022-09-14T14:11:36.609Z,88.86
2022-09-14T14:14:18.638Z,88.34
2022-09-14T14:17:13.558Z,86.44
2022-09-14T14:19:40.688Z,87.54
2022-09-14T14:22:16.308Z,87.42
2022-09-14T14:25:12.413Z,87.87
2022-09-14T14:27:37.682Z,87.73
2022-09-14T14:30:14.240Z,87.06
2022-09-14T14:32:41.444Z,87.29
2022-09-14T14:35:15.774Z,87.15
2022-09-14T14:37:42.891Z,86.86
2022-09-14T14:40:12.537Z,87.08
2022-09-14T14:42:39.565Z,88.10
2022-09-14T14:45:07.564Z,86.64
2022-09-14T14:47:34.206Z,87.09
2022-09-14T14:50:01.182Z,87.26
2022-09-14T14:52:27.849Z,86.86
2022-09-14T14:54:54.515Z,87.47
2022-09-14T14:57:21.280Z,88.53
2022-09-14T14:59:52.746Z,88.56
2022-09-14T15:02:19.401Z,88.33
2022-09-14T15:04:46.057Z,88.44
2022-09-14T15:07:12.599Z,87.79
2022-09-14T15:09:39.161Z,87.30
2022-09-14T15:12:05.869Z,87.50
2022-09-14T15:14:32.463Z,87.07
2022-09-14T15:17:00.401Z,88.10
2022-09-14T15:19:27.217Z,87.74
2022-09-14T15:21:58.575Z,86.87
2022-09-14T15:24:27.517Z,86.80
2022-09-14T15:26:54.337Z,88.11
2022-09-14T15:29:21.215Z,88.45
2022-09-14T15:31:48.166Z,88.76
2022-09-14T15:34:14.855Z,87.97
2022-09-14T15:36:47.787Z,88.25
2022-09-14T15:39:15.060Z,88.36
2022-09-14T15:41:42.589Z,87.90
2022-09-14T15:44:11.555Z,87.47
2022-09-14T15:46:39.170Z,88.37
2022-09-14T15:49:11.579Z,88.75
2022-09-14T15:51:42.377Z,88.09
2022-09-14T15:54:09.176Z,88.17
2022-09-14T15:56:35.879Z,87.80
2022-09-14T15:59:03.787Z,86.62
2022-09-14T16:01:31.489Z,86.50
2022-09-14T16:04:02.725Z,86.00
2022-09-14T16:06:29.489Z,85.83
2022-09-14T16:08:57.669Z,87.11
2022-09-14T16:11:24.998Z,87.69
2022-09-14T16:13:52.285Z,86.17
2022-09-14T16:16:20.400Z,85.67
2022-09-14T16:18:49.810Z,84.88
2022-09-14T16:21:19.262Z,85.36
2022-09-14T16:23:48.903Z,85.77
2022-09-14T16:26:18.755Z,86.01
2022-09-14T16:28:47.729Z,85.28
2022-09-14T16:31:26.927Z,86.90
2022-09-14T16:33:55.620Z,86.69
2022-09-14T16:36:27.525Z,86.18
2022-09-14T16:38:59.685Z,84.55
2022-09-14T16:41:31.471Z,85.01
2022-09-14T16:44:02.440Z,85.39
2022-09-14T16:46:30.740Z,85.13
2022-09-14T16:49:00.678Z,85.40
2022-09-14T16:51:29.664Z,85.49
2022-09-14T16:53:58.582Z,86.86
2022-09-14T16:56:31.542Z,86.11
2022-09-14T16:58:59.849Z,87.01
2022-09-14T17:01:28.673Z,87.75
2022-09-14T17:03:58.107Z,87.39
2022-09-14T17:06:29.143Z,87.78
2022-09-14T17:09:00.192Z,87.78
2022-09-14T17:11:28.935Z,87.26
2022-09-14T17:13:55.973Z,87.01
2022-09-14T17:16:24.519Z,87.92
2022-09-14T17:18:53.576Z,87.51
2022-09-14T17:21:23.352Z,86.98
2022-09-14T17:23:50.428Z,87.03
2022-09-14T17:26:19.316Z,87.25
2022-09-14T17:28:50.994Z,86.85
2022-09-14T17:31:22.764Z,86.60
2022-09-14T17:33:50.210Z,86.98
2022-09-14T17:36:16.971Z,88.02
2022-09-14T17:38:44.415Z,88.96
2022-09-14T17:41:17.002Z,89.21
2022-09-14T17:43:43.711Z,88.22
2022-09-14T17:46:16.129Z,88.03
2022-09-14T17:48:43.634Z,88.25
2022-09-14T17:51:20.323Z,88.44
2022-09-14T17:53:49.522Z,88.96
2022-09-14T17:56:17.832Z,89.37
2022-09-14T17:58:44.835Z,89.65
2022-09-14T18:01:14.278Z,89.68
2022-09-14T18:03:43.535Z,90.12
2022-09-14T18:06:12.375Z,90.02
2022-09-14T18:08:40.205Z,90.16
2022-09-14T18:11:13.618Z,90.35
2022-09-14T18:13:45.297Z,90.19
2022-09-14T18:16:13.819Z,90.01
2022-09-14T18:18:40.925Z,89.97
2022-09-14T18:21:08.657Z,90.55
2022-09-14T18:23:36.195Z,91.02
2022-09-14T18:26:06.737Z,90.98
2022-09-14T18:28:34.868Z,92.00
2022-09-14T18:31:03.510Z,92.43
2022-09-14T18:33:30.373Z,92.09
2022-09-14T18:35:57.606Z,91.58
2022-09-14T18:38:24.595Z,92.78
2022-09-14T18:40:51.426Z,92.41
2022-09-14T18:43:18.000Z,92.43
2022-09-14T18:45:45.605Z,93.60
2022-09-14T18:48:12.803Z,93.35
2022-09-14T18:50:40.939Z,93.67
2022-09-14T18:53:08.276Z,94.31
2022-09-14T18:55:35.460Z,93.67
2022-09-14T18:58:02.555Z,93.37
2022-09-14T19:00:29.600Z,93.22
2022-09-14T19:02:57.039Z,92.96
2022-09-14T19:05:26.763Z,94.48
2022-09-14T19:07:53.362Z,93.87
2022-09-14T19:10:20.458Z,93.22
2022-09-14T19:12:47.058Z,94.04
2022-09-14T19:15:13.822Z,94.17
2022-09-14T19:17:40.403Z,94.64
2022-09-14T19:20:08.504Z,94.70
2022-09-14T19:22:35.451Z,94.55
2022-09-14T19:25:02.184Z,94.51
2022-09-14T19:27:29.008Z,95.41
2022-09-14T19:29:55.662Z,94.98
2022-09-14T19:32:22.333Z,94.89
2022-09-14T19:34:49.575Z,94.74
2022-09-14T19:37:16.201Z,94.71
2022-09-14T19:39:43.841Z,94.75
2022-09-14T19:42:10.600Z,94.54
2022-09-14T19:44:37.555Z,93.84
2022-09-14T19:47:04.248Z,94.34
2022-09-14T19:49:30.885Z,94.39
2022-09-14T19:51:57.568Z,95.36
2022-09-14T19:54:24.971Z,94.61
2022-09-14T19:56:52.354Z,93.45
2022-09-14T19:59:19.633Z,93.34
2022-09-14T20:01:46.630Z,94.02
2022-09-14T20:04:15.688Z,93.41
2022-09-14T20:06:44.174Z,93.92
2022-09-14T20:09:13.841Z,95.12
2022-09-14T20:11:42.522Z,94.38
2022-09-14T20:14:14.888Z,94.20
2022-09-14T20:16:45.051Z,94.47
2022-09-14T20:19:17.030Z,93.75
2022-09-14T20:21:45.525Z,93.62
2022-09-14T20:24:19.159Z,94.63
2022-09-14T20:26:47.685Z,93.77
2022-09-14T20:29:15.631Z,93.74
2022-09-14T20:31:42.681Z,94.82
2022-09-14T20:34:09.590Z,94.02
2022-09-14T20:36:36.679Z,93.86
2022-09-14T20:39:03.402Z,93.85
2022-09-14T20:41:33.167Z,94.18
2022-09-14T20:44:00.210Z,94.76
2022-09-14T20:46:35.468Z,95.16
2022-09-14T20:49:04.519Z,95.83
2022-09-14T20:51:31.724Z,94.88
2022-09-14T20:53:58.542Z,94.51
2022-09-14T20:56:28.547Z,94.42
2022-09-14T20:58:58.013Z,94.15
2022-09-14T21:01:28.277Z,93.97
2022-09-14T21:03:55.629Z,93.77
2022-09-14T21:06:24.296Z,93.43
2022-09-14T21:08:51.991Z,93.75
2022-09-14T21:11:26.563Z,93.84
2022-09-14T21:13:54.710Z,93.53
2022-09-14T21:16:25.093Z,93.67
2022-09-14T21:19:00.810Z,94.04
2022-09-14T21:21:28.291Z,94.14
2022-09-14T21:23:57.028Z,94.17
2022-09-14T21:26:26.814Z,94.32
2022-09-14T21:28:58.929Z,94.90
2022-09-14T21:31:30.002Z,94.02
2022-09-14T21:34:01.664Z,94.24
2022-09-14T21:36:31.865Z,94.82
2022-09-14T21:39:00.022Z,95.12
2022-09-14T21:41:29.428Z,94.64
2022-09-14T21:43:56.922Z,94.29
2022-09-14T21:46:24.871Z,94.34
2022-09-14T21:48:52.370Z,94.47
2022-09-14T21:51:21.956Z,95.08
2022-09-14T21:53:52.607Z,95.03
2022-09-14T21:56:21.152Z,95.00
2022-09-14T21:59:14.129Z,94.53
2022-09-14T22:01:41.884Z,93.96
2022-09-14T22:04:13.870Z,93.63
2022-09-14T22:06:40.587Z,93.42
2022-09-14T22:09:07.213Z,92.91
2022-09-14T22:11:36.280Z,92.74
2022-09-14T22:14:06.214Z,92.53
2022-09-14T22:16:35.663Z,92.41
2022-09-14T22:19:05.518Z,92.95
2022-09-14T22:21:34.361Z,93.16
2022-09-14T22:24:04.358Z,92.75
2022-09-14T22:26:32.069Z,92.49
2022-09-14T22:28:59.292Z,92.32
2022-09-14T22:31:27.336Z,92.57
2022-09-14T22:33:56.018Z,93.05
2022-09-14T22:36:23.329Z,92.81
2022-09-14T22:38:51.360Z,92.93
2022-09-14T22:41:22.171Z,91.72
2022-09-14T22:43:49.531Z,91.80
2022-09-14T22:46:17.040Z,91.74
2022-09-14T22:48:44.852Z,93.60
2022-09-14T22:51:15.073Z,94.22
2022-09-14T22:53:42.071Z,94.47
2022-09-14T22:56:11.148Z,94.72
2022-09-14T22:58:39.267Z,94.67
2022-09-14T23:01:08.448Z,94.47
2022-09-14T23:03:35.329Z,94.02
2022-09-14T23:06:02.689Z,94.56
2022-09-14T23:08:30.670Z,94.77
2022-09-14T23:10:57.474Z,94.74
2022-09-14T23:13:24.077Z,95.21
2022-09-14T23:15:50.882Z,95.02
2022-09-14T23:18:17.491Z,95.16
2022-09-14T23:20:45.109Z,95.71
2022-09-14T23:23:12.231Z,95.00
2022-09-14T23:25:41.026Z,95.13
2022-09-14T23:28:11.751Z,95.15
2022-09-14T23:30:38.613Z,94.53
2022-09-14T23:33:06.025Z,94.81
2022-09-14T23:35:37.560Z,94.47
2022-09-14T23:38:04.680Z,95.13
2022-09-14T23:40:31.598Z,95.12
2022-09-14T23:42:58.674Z,95.70
2022-09-14T23:45:25.383Z,95.02
2022-09-14T23:47:52.011Z,95.49
2022-09-14T23:50:18.973Z,95.71
2022-09-14T23:52:47.224Z,95.02
2022-09-14T23:55:13.987Z,95.26
2022-09-14T23:57:40.948Z,95.48
